Time;durP1;ratioP1;P1;durP2;ratioP2;P2;SDS_P1;SDS_P2;PMS_P1;PMS_P2;Temp;Humidity;BMP_temperature;BMP_pressure;BME280_temperature;BME280_humidity;BME280_pressure;Samples;Min_cycle;Max_cycle;Signal;HPM_P1;HPM_P2
2022/01/04 00:00:50;;;;;;;4.43;1.90;;;9.40;99.90;;;;;;5011996;28;20191;-89
2022/01/04 00:03:15;;;;;;;2.60;1.70;;;9.30;99.90;;;;;;5014219;28;20265;-89
2022/01/04 00:05:41;;;;;;;3.50;2.20;;;9.30;99.90;;;;;;5014415;28;20265;-89
2022/01/04 00:08:11;;;;;;;5.43;1.67;;;9.30;99.90;;;;;;5014269;28;20222;-89
2022/01/04 00:10:37;;;;;;;2.53;1.30;;;9.30;99.90;;;;;;5014410;28;20628;-88
2022/01/04 00:15:49;;;;;;;1.97;1.43;;;9.30;99.90;;;;;;4991354;28;20276;-89
2022/01/04 00:18:16;;;;;;;2.33;1.30;;;9.30;99.90;;;;;;4991257;28;20211;-89
2022/01/04 00:20:42;;;;;;;2.33;1.57;;;9.40;99.90;;;;;;4974964;28;20184;-88
2022/01/04 00:23:07;;;;;;;3.27;1.40;;;9.40;99.90;;;;;;4982769;28;20222;-88
2022/01/04 00:25:33;;;;;;;2.20;1.10;;;9.40;99.90;;;;;;4994486;28;20191;-89
2022/01/04 00:28:01;;;;;;;1.47;0.90;;;9.40;99.90;;;;;;4994210;28;20187;-89
2022/01/04 00:30:28;;;;;;;3.60;1.80;;;9.40;99.90;;;;;;5008282;28;20235;-89
2022/01/04 00:32:55;;;;;;;3.80;1.83;;;9.40;99.90;;;;;;5013840;28;20197;-89
2022/01/04 00:35:21;;;;;;;2.60;1.63;;;9.40;99.90;;;;;;5013966;28;20273;-88
2022/01/04 00:37:47;;;;;;;3.87;1.70;;;9.40;99.90;;;;;;5030384;28;20373;-89
2022/01/04 00:40:13;;;;;;;3.53;1.60;;;9.40;99.90;;;;;;5030052;28;20193;-89
2022/01/04 00:42:39;;;;;;;2.20;1.40;;;9.40;99.90;;;;;;5013565;28;20199;-88
2022/01/04 00:45:05;;;;;;;1.73;1.23;;;9.40;99.90;;;;;;5013789;28;20179;-89
2022/01/04 00:49:09;;;;;;;3.37;1.73;;;9.40;99.90;;;;;;5013492;28;20233;-89
2022/01/04 00:50:28;;;;;;;2.27;1.40;;;9.40;99.90;;;;;;5028894;28;20217;-88
2022/01/04 00:52:55;;;;;;;2.07;1.67;;;9.40;99.90;;;;;;5013528;28;20647;-89
2022/01/04 00:55:22;;;;;;;5.17;2.70;;;9.40;99.90;;;;;;5013170;28;20270;-89
2022/01/04 00:57:48;;;;;;;4.60;2.07;;;9.40;99.90;;;;;;5029646;28;20209;-88
2022/01/04 01:00:15;;;;;;;8.37;3.83;;;9.40;99.90;;;;;;4997834;28;20188;-89
2022/01/04 01:02:42;;;;;;;8.27;4.23;;;9.40;99.90;;;;;;4974166;28;20219;-89
2022/01/04 01:05:10;;;;;;;7.30;3.27;;;9.30;99.90;;;;;;5006996;28;20181;-88
2022/01/04 01:07:36;;;;;;;3.20;1.70;;;9.40;99.90;;;;;;4974396;28;20191;-89
2022/01/04 01:12:31;;;;;;;2.10;1.30;;;9.40;99.90;;;;;;4990404;28;20200;-89
2022/01/04 01:14:56;;;;;;;3.63;2.07;;;9.40;99.90;;;;;;4974584;28;20180;-89
2022/01/04 01:17:22;;;;;;;1.37;1.27;;;9.40;99.90;;;;;;4990315;28;20185;-89
2022/01/04 01:19:48;;;;;;;2.07;1.30;;;9.40;99.90;;;;;;4974062;28;20180;-88
2022/01/04 01:22:14;;;;;;;2.90;1.20;;;9.40;99.90;;;;;;4974867;28;20238;-88
2022/01/04 01:24:40;;;;;;;1.77;1.20;;;9.40;99.90;;;;;;4993642;28;20191;-89
2022/01/04 01:27:06;;;;;;;1.57;1.10;;;9.40;99.90;;;;;;4993364;28;20184;-89
2022/01/04 01:29:32;;;;;;;2.93;1.23;;;9.50;99.90;;;;;;4993261;28;20242;-89
2022/01/04 01:31:58;;;;;;;1.80;1.27;;;9.50;99.90;;;;;;4993825;28;20608;-89
2022/01/04 01:34:24;;;;;;;1.30;1.00;;;9.50;99.90;;;;;;4993480;28;20194;-89
2022/01/04 01:36:50;;;;;;;2.27;1.17;;;9.50;99.90;;;;;;4993576;28;20182;-89
2022/01/04 01:39:16;;;;;;;2.07;1.40;;;9.50;99.90;;;;;;4993267;28;20183;-89
2022/01/04 01:41:42;;;;;;;2.77;1.00;;;9.50;99.90;;;;;;4993431;28;20309;-89
2022/01/04 01:44:08;;;;;;;1.30;1.20;;;9.50;99.90;;;;;;4993666;28;20269;-89
2022/01/04 01:46:34;;;;;;;2.47;1.43;;;9.50;99.90;;;;;;4993502;28;20636;-89
2022/01/04 01:49:00;;;;;;;1.73;1.30;;;9.50;99.90;;;;;;4992989;28;20181;-89
2022/01/04 01:51:29;;;;;;;1.57;1.30;;;9.50;99.90;;;;;;4993226;28;20223;-89
2022/01/04 01:53:55;;;;;;;1.90;1.17;;;9.50;99.90;;;;;;4992928;28;20175;-89
2022/01/04 01:56:21;;;;;;;2.27;1.20;;;9.50;99.90;;;;;;4993186;28;20229;-89
2022/01/04 01:58:47;;;;;;;2.10;1.10;;;9.50;99.90;;;;;;4993060;28;20183;-89
2022/01/04 02:01:13;;;;;;;2.47;1.40;;;9.50;99.90;;;;;;4993309;28;20211;-89
2022/01/04 02:03:40;;;;;;;1.53;1.10;;;9.50;99.90;;;;;;4992988;28;20183;-89
2022/01/04 02:06:06;;;;;;;3.17;1.20;;;9.50;99.90;;;;;;4993328;28;20183;-89
2022/01/04 02:08:32;;;;;;;1.50;1.13;;;9.50;99.90;;;;;;4994721;28;20181;-89
2022/01/04 02:10:59;;;;;;;1.70;1.23;;;9.50;99.90;;;;;;5012938;28;20207;-88
2022/01/04 02:13:25;;;;;;;2.33;1.27;;;9.50;99.90;;;;;;5013514;28;20261;-89
2022/01/04 02:15:52;;;;;;;2.10;1.30;;;9.50;99.90;;;;;;4996853;28;20207;-88
2022/01/04 02:18:18;;;;;;;1.73;1.40;;;9.50;99.90;;;;;;4996508;28;20171;-88
2022/01/04 02:20:44;;;;;;;1.77;1.33;;;9.50;99.90;;;;;;4996675;28;20206;-89
2022/01/04 02:23:10;;;;;;;1.83;1.17;;;9.50;99.90;;;;;;4996183;28;20214;-89
2022/01/04 02:25:36;;;;;;;1.53;1.20;;;9.50;99.90;;;;;;5029631;28;20246;-89
2022/01/04 02:28:02;;;;;;;1.97;1.30;;;9.50;99.90;;;;;;5013069;28;20215;-89
2022/01/04 02:30:28;;;;;;;2.23;1.30;;;9.50;99.90;;;;;;5032030;28;20219;-88
2022/01/04 02:32:54;;;;;;;1.30;1.20;;;9.50;99.90;;;;;;5016042;28;20205;-88
2022/01/04 02:35:24;;;;;;;1.27;1.00;;;9.60;99.90;;;;;;5016331;28;20210;-88
2022/01/04 02:37:54;;;;;;;2.27;1.20;;;9.60;99.90;;;;;;5016044;28;20179;-89
2022/01/04 02:40:20;;;;;;;1.80;1.20;;;9.60;99.90;;;;;;5016735;28;20187;-88
2022/01/04 02:42:46;;;;;;;1.97;1.13;;;9.60;99.90;;;;;;5016653;28;20198;-88
2022/01/04 02:45:12;;;;;;;3.20;1.20;;;9.60;99.90;;;;;;5033453;28;20194;-89
2022/01/04 02:47:38;;;;;;;1.30;1.10;;;9.60;99.90;;;;;;5016958;28;20187;-88
2022/01/04 02:50:05;;;;;;;1.07;1.00;;;9.50;99.90;;;;;;5017328;28;20202;-89
2022/01/04 02:52:33;;;;;;;1.30;1.20;;;9.50;99.90;;;;;;5017208;28;20289;-88
2022/01/04 02:55:04;;;;;;;1.53;1.27;;;9.50;99.90;;;;;;5016591;28;20274;-88
2022/01/04 02:57:30;;;;;;;1.90;1.10;;;9.60;99.90;;;;;;5032274;28;20175;-89
2022/01/04 02:59:55;;;;;;;2.10;1.40;;;9.50;99.90;;;;;;5005661;28;20263;-89
2022/01/04 03:02:21;;;;;;;1.47;0.93;;;9.60;99.90;;;;;;4996068;28;20209;-89
2022/01/04 03:04:47;;;;;;;1.20;1.10;;;9.50;99.90;;;;;;4996173;28;20246;-89
2022/01/04 03:07:13;;;;;;;2.83;1.30;;;9.50;99.90;;;;;;4996227;28;20179;-89
2022/01/04 03:09:39;;;;;;;2.47;1.50;;;9.60;99.90;;;;;;5012374;28;20213;-89
2022/01/04 03:12:06;;;;;;;2.40;1.30;;;9.60;99.90;;;;;;4995488;28;20197;-89
2022/01/04 03:14:34;;;;;;;1.83;1.43;;;9.60;99.90;;;;;;4995808;28;20192;-89
2022/01/04 03:17:00;;;;;;;1.97;1.27;;;9.70;99.90;;;;;;4995960;28;20177;-89
2022/01/04 03:19:26;;;;;;;2.27;1.30;;;9.70;99.90;;;;;;4995141;28;20180;-89
2022/01/04 03:21:52;;;;;;;1.50;1.30;;;9.70;99.90;;;;;;4995618;28;20195;-89
2022/01/04 03:24:18;;;;;;;2.17;1.30;;;9.70;99.90;;;;;;5011062;28;20203;-89
2022/01/04 03:26:44;;;;;;;1.70;1.20;;;9.70;99.90;;;;;;4995715;28;20181;-89
2022/01/04 03:29:12;;;;;;;1.40;1.20;;;9.70;99.90;;;;;;4998716;28;20277;-89
2022/01/04 03:31:39;;;;;;;1.40;1.30;;;9.70;99.90;;;;;;5031457;28;20290;-89
2022/01/04 03:34:05;;;;;;;1.93;1.30;;;9.70;99.90;;;;;;5014955;28;20193;-89
2022/01/04 03:36:32;;;;;;;2.73;1.70;;;9.70;99.90;;;;;;5015360;28;20187;-89
2022/01/04 03:38:59;;;;;;;2.33;1.90;;;9.70;99.90;;;;;;5014932;28;20187;-89
2022/01/04 03:41:26;;;;;;;3.70;2.23;;;9.70;99.90;;;;;;5003860;28;20288;-89
2022/01/04 03:43:53;;;;;;;4.07;3.37;;;9.70;99.90;;;;;;4975807;28;20188;-89
2022/01/04 03:46:19;;;;;;;4.30;2.97;;;9.70;99.90;;;;;;4975784;28;20201;-89
2022/01/04 03:48:45;;;;;;;3.40;2.90;;;9.70;99.90;;;;;;4975345;28;20184;-89
2022/01/04 03:51:11;;;;;;;4.37;2.63;;;9.70;99.90;;;;;;4975558;28;20292;-89
2022/01/04 03:53:38;;;;;;;4.03;2.73;;;9.70;99.90;;;;;;4975485;28;20179;-89
2022/01/04 03:56:05;;;;;;;4.87;2.73;;;9.60;99.90;;;;;;4975559;28;20191;-89
2022/01/04 03:58:31;;;;;;;3.63;2.83;;;9.60;99.90;;;;;;4975263;28;20179;-89
2022/01/04 04:00:57;;;;;;;6.37;4.03;;;9.60;99.90;;;;;;4993305;28;20222;-89
2022/01/04 04:03:23;;;;;;;4.90;3.50;;;9.60;99.90;;;;;;4994635;28;20188;-89
2022/01/04 04:05:49;;;;;;;4.63;3.03;;;9.60;99.90;;;;;;4995055;28;20189;-89
2022/01/04 04:08:16;;;;;;;3.17;2.40;;;9.60;99.90;;;;;;4994838;28;20289;-89
2022/01/04 04:10:42;;;;;;;4.03;2.77;;;9.60;99.90;;;;;;4994660;28;20244;-89
2022/01/04 04:13:07;;;;;;;2.90;2.60;;;9.50;99.90;;;;;;4994641;28;20244;-89
2022/01/04 04:15:33;;;;;;;2.17;1.97;;;9.50;99.90;;;;;;4994777;28;20215;-89
2022/01/04 04:17:59;;;;;;;1.90;1.50;;;9.50;99.90;;;;;;4994441;28;20175;-89
2022/01/04 04:20:26;;;;;;;2.23;1.40;;;9.50;99.90;;;;;;4994842;28;20209;-89
2022/01/04 04:22:51;;;;;;;1.60;1.50;;;9.50;99.90;;;;;;4993961;28;20219;-89
2022/01/04 04:25:18;;;;;;;3.20;1.30;;;9.50;99.90;;;;;;4975074;28;20188;-89
2022/01/04 04:27:44;;;;;;;2.17;1.50;;;9.50;99.90;;;;;;4974754;28;20603;-89
2022/01/04 04:30:11;;;;;;;3.03;1.40;;;9.50;99.90;;;;;;4997706;28;20241;-89
2022/01/04 04:32:36;;;;;;;1.63;1.30;;;9.50;99.90;;;;;;5013380;28;20258;-89
2022/01/04 04:35:04;;;;;;;2.57;1.67;;;9.50;99.90;;;;;;5013904;28;20294;-89
2022/01/04 04:37:30;;;;;;;1.77;1.40;;;9.50;99.90;;;;;;5014102;28;20182;-89
2022/01/04 04:39:56;;;;;;;1.90;1.40;;;9.50;99.90;;;;;;5013488;28;20193;-89
2022/01/04 04:42:22;;;;;;;1.73;1.37;;;9.50;99.90;;;;;;5013713;28;20260;-89
2022/01/04 04:44:48;;;;;;;1.60;1.30;;;9.50;99.90;;;;;;5013853;28;20194;-89
2022/01/04 04:47:14;;;;;;;2.70;1.20;;;9.50;99.90;;;;;;5013716;28;20188;-89
2022/01/04 04:49:40;;;;;;;1.80;1.30;;;9.50;99.90;;;;;;5013750;28;20277;-89
2022/01/04 04:52:06;;;;;;;1.33;1.23;;;9.60;99.90;;;;;;5013764;28;20225;-89
2022/01/04 04:54:32;;;;;;;3.77;1.30;;;9.60;99.90;;;;;;5013803;28;20222;-89
2022/01/04 04:56:58;;;;;;;3.13;1.20;;;9.70;99.90;;;;;;5013606;28;20182;-89
2022/01/04 04:59:24;;;;;;;2.60;1.30;;;9.70;99.90;;;;;;5004742;28;20178;-89
2022/01/04 05:01:50;;;;;;;2.13;1.40;;;9.70;99.90;;;;;;5006285;28;20203;-89
2022/01/04 05:04:16;;;;;;;2.70;1.30;;;9.70;99.90;;;;;;4991059;28;20176;-89
2022/01/04 05:06:41;;;;;;;2.93;1.20;;;9.70;99.90;;;;;;4974660;28;20174;-89
2022/01/04 05:09:07;;;;;;;1.70;1.57;;;9.70;99.90;;;;;;4973907;28;20186;-89
2022/01/04 05:11:33;;;;;;;2.30;1.20;;;9.70;99.90;;;;;;4974238;28;20210;-89
2022/01/04 05:13:59;;;;;;;2.43;1.40;;;9.70;99.90;;;;;;4974300;28;20177;-89
2022/01/04 05:16:25;;;;;;;1.57;1.27;;;9.70;99.90;;;;;;4974169;28;20187;-89
2022/01/04 05:18:51;;;;;;;1.77;1.40;;;9.70;99.90;;;;;;4974139;28;20184;-89
2022/01/04 05:21:17;;;;;;;1.50;1.30;;;9.80;99.90;;;;;;5006556;28;20695;-89
2022/01/04 05:23:43;;;;;;;2.60;1.30;;;9.80;99.90;;;;;;4996938;28;20203;-89
2022/01/04 05:26:08;;;;;;;1.50;1.10;;;9.80;99.90;;;;;;5026449;28;20184;-89
2022/01/04 05:28:34;;;;;;;2.27;1.20;;;9.80;99.90;;;;;;5009657;28;20270;-89
2022/01/04 05:31:00;;;;;;;1.97;1.03;;;9.90;99.90;;;;;;5028319;28;20395;-89
2022/01/04 05:33:26;;;;;;;1.50;1.00;;;9.90;99.90;;;;;;5013202;28;20234;-89
2022/01/04 05:35:53;;;;;;;2.20;1.20;;;9.90;99.90;;;;;;5013187;28;20741;-89
2022/01/04 05:38:19;;;;;;;2.30;1.20;;;9.80;99.90;;;;;;5013189;28;20254;-89
2022/01/04 05:40:45;;;;;;;1.13;0.90;;;9.80;99.90;;;;;;5013436;28;20208;-89
2022/01/04 05:43:11;;;;;;;1.30;1.00;;;9.80;99.90;;;;;;5016361;28;20228;-89
2022/01/04 05:45:37;;;;;;;2.23;1.20;;;9.80;99.90;;;;;;5017132;28;20184;-89
2022/01/04 05:48:03;;;;;;;2.33;1.30;;;9.90;99.90;;;;;;5017077;28;20193;-89
2022/01/04 05:50:30;;;;;;;5.27;2.83;;;9.90;99.90;;;;;;5016838;28;20216;-89
2022/01/04 05:52:56;;;;;;;2.60;1.70;;;9.80;99.90;;;;;;5016979;28;20199;-89
2022/01/04 05:55:22;;;;;;;3.57;1.43;;;9.80;99.90;;;;;;5017088;28;20185;-89
2022/01/04 05:57:47;;;;;;;1.83;1.20;;;9.80;99.90;;;;;;5017007;28;20178;-89
2022/01/04 06:00:14;;;;;;;2.67;1.20;;;9.80;99.90;;;;;;5004749;28;20200;-89
2022/01/04 06:02:40;;;;;;;1.40;1.03;;;9.80;99.90;;;;;;4997619;28;20199;-89
2022/01/04 06:05:08;;;;;;;1.30;1.20;;;9.80;99.90;;;;;;4998265;28;20252;-89
2022/01/04 06:07:35;;;;;;;2.10;1.23;;;9.80;99.90;;;;;;4998057;28;20265;-89
2022/01/04 06:10:01;;;;;;;1.90;1.13;;;9.80;99.90;;;;;;4998239;28;20208;-89
2022/01/04 06:15:02;;;;;;;2.73;1.10;;;9.80;99.90;;;;;;5015033;28;20180;-89
2022/01/04 06:17:33;;;;;;;2.40;1.13;;;9.80;99.90;;;;;;4998185;28;20180;-89
2022/01/04 06:19:59;;;;;;;1.40;0.93;;;9.80;99.90;;;;;;4996896;28;20188;-89
2022/01/04 06:22:27;;;;;;;2.27;1.20;;;9.80;99.90;;;;;;4996102;28;20578;-89
2022/01/04 06:24:54;;;;;;;1.47;0.90;;;9.80;99.90;;;;;;5029770;28;20187;-89
2022/01/04 06:27:23;;;;;;;1.17;1.07;;;9.80;99.90;;;;;;5029644;28;20262;-89
2022/01/04 06:29:49;;;;;;;2.33;1.00;;;9.80;99.90;;;;;;5032723;28;20246;-89
2022/01/04 06:32:16;;;;;;;1.13;0.90;;;9.80;99.90;;;;;;5016189;28;20224;-89
2022/01/04 06:34:43;;;;;;;1.70;1.00;;;9.80;99.90;;;;;;5016274;28;20223;-89
2022/01/04 06:37:11;;;;;;;1.50;0.87;;;9.80;99.90;;;;;;5016501;28;20232;-89
2022/01/04 06:39:37;;;;;;;1.30;0.80;;;9.80;99.90;;;;;;5015807;28;20186;-89
2022/01/04 06:42:04;;;;;;;0.80;0.80;;;9.90;99.90;;;;;;5016478;28;20213;-89
2022/01/04 06:44:31;;;;;;;1.00;0.90;;;9.90;99.90;;;;;;5016268;28;20183;-89
2022/01/04 06:46:57;;;;;;;1.73;0.90;;;9.90;99.90;;;;;;5015912;28;20183;-89
2022/01/04 06:49:24;;;;;;;1.17;1.07;;;9.90;99.90;;;;;;5015437;28;20180;-89
2022/01/04 06:51:51;;;;;;;2.63;1.10;;;9.90;99.90;;;;;;5016080;28;20208;-89
2022/01/04 06:54:19;;;;;;;1.03;0.90;;;9.90;99.90;;;;;;5014721;28;20183;-89
2022/01/04 06:56:46;;;;;;;1.40;1.00;;;9.90;99.90;;;;;;5015799;28;20178;-89
2022/01/04 06:59:12;;;;;;;1.40;0.97;;;9.90;99.90;;;;;;5008152;28;20189;-89
2022/01/04 07:01:38;;;;;;;1.40;1.00;;;10.00;99.90;;;;;;4976300;28;20261;-89
2022/01/04 07:04:05;;;;;;;1.53;1.10;;;9.90;99.90;;;;;;4976657;28;20187;-90
2022/01/04 07:06:32;;;;;;;1.67;1.00;;;9.90;99.90;;;;;;4976570;28;20193;-89
2022/01/04 07:08:58;;;;;;;1.97;1.10;;;10.00;99.90;;;;;;4976527;28;20186;-89
2022/01/04 07:11:24;;;;;;;1.10;1.00;;;10.00;99.90;;;;;;4976428;28;20224;-89
2022/01/04 07:13:50;;;;;;;1.00;0.90;;;9.90;99.90;;;;;;4976327;28;20181;-90
2022/01/04 07:16:16;;;;;;;1.60;1.00;;;9.90;99.90;;;;;;4992727;28;20176;-90
2022/01/04 07:18:46;;;;;;;1.23;1.10;;;10.00;99.90;;;;;;4993056;28;20262;-89
2022/01/04 07:21:13;;;;;;;1.00;0.90;;;10.00;99.90;;;;;;5014032;28;20194;-89
2022/01/04 07:23:40;;;;;;;1.17;1.00;;;10.10;99.90;;;;;;5011901;28;20202;-89
2022/01/04 07:26:06;;;;;;;3.27;1.10;;;10.10;99.90;;;;;;5005897;28;20191;-90
2022/01/04 07:28:32;;;;;;;1.03;0.90;;;10.10;99.90;;;;;;5013676;28;20205;-89
2022/01/04 07:30:58;;;;;;;1.83;1.00;;;10.20;99.90;;;;;;5003900;28;20287;-89
2022/01/04 07:33:24;;;;;;;2.00;1.40;;;10.20;99.90;;;;;;5004300;28;20187;-90
2022/01/04 07:35:51;;;;;;;2.10;1.30;;;10.20;99.90;;;;;;5006420;28;20271;-89
2022/01/04 07:38:17;;;;;;;4.13;2.43;;;10.30;99.90;;;;;;5003841;28;20182;-90
2022/01/04 07:40:43;;;;;;;5.67;2.57;;;10.30;99.90;;;;;;5002941;28;20181;-90
2022/01/04 07:43:12;;;;;;;5.70;2.40;;;10.40;99.90;;;;;;5004134;28;20303;-90
2022/01/04 07:45:38;;;;;;;4.83;2.60;;;10.40;99.90;;;;;;4998023;28;20210;-89
2022/01/04 07:48:06;;;;;;;13.77;5.40;;;10.40;99.90;;;;;;5000592;28;20189;-90
2022/01/04 07:50:33;;;;;;;18.77;8.50;;;10.40;99.90;;;;;;5005140;28;20210;-89
2022/01/04 07:52:59;;;;;;;6.70;4.17;;;10.40;99.90;;;;;;5014493;28;20212;-89
2022/01/04 07:55:25;;;;;;;6.47;3.40;;;10.40;99.90;;;;;;5014128;28;20196;-90
2022/01/04 07:57:51;;;;;;;7.03;3.70;;;10.40;99.90;;;;;;5014533;28;20185;-90
2022/01/04 08:00:17;;;;;;;7.50;3.80;;;10.40;99.90;;;;;;4998311;28;20193;-90
2022/01/04 08:02:44;;;;;;;8.97;4.10;;;10.40;99.90;;;;;;5023097;28;20206;-90
2022/01/04 08:05:11;;;;;;;6.60;3.53;;;10.40;99.90;;;;;;5011485;28;20189;-90
2022/01/04 08:07:37;;;;;;;13.80;6.40;;;10.40;99.90;;;;;;5014553;28;20185;-90
2022/01/04 08:10:04;;;;;;;5.17;2.87;;;10.40;99.90;;;;;;5014173;28;20218;-90
2022/01/04 08:12:30;;;;;;;4.57;2.70;;;10.40;99.90;;;;;;5014460;28;20496;-90
2022/01/04 08:14:56;;;;;;;2.47;1.60;;;10.50;99.90;;;;;;5014239;28;20185;-90
2022/01/04 08:17:22;;;;;;;2.53;1.80;;;10.60;99.90;;;;;;5014446;28;20189;-90
2022/01/04 08:19:50;;;;;;;2.63;2.03;;;10.70;99.90;;;;;;5014130;28;20269;-90
2022/01/04 08:22:17;;;;;;;3.80;2.40;;;10.80;99.90;;;;;;5011686;28;20215;-89
2022/01/04 08:24:42;;;;;;;3.30;2.57;;;10.80;99.90;;;;;;5027456;28;20236;-90
2022/01/04 08:27:10;;;;;;;3.50;2.47;;;10.90;99.90;;;;;;5030171;28;20667;-90
2022/01/04 08:29:36;;;;;;;2.63;1.83;;;10.90;99.90;;;;;;5002055;28;20182;-90
2022/01/04 08:32:02;;;;;;;2.27;1.53;;;10.90;99.90;;;;;;4987418;28;20229;-90
2022/01/04 08:34:30;;;;;;;2.97;1.30;;;11.00;99.90;;;;;;5017912;28;20177;-90
2022/01/04 08:36:57;;;;;;;1.67;1.30;;;11.00;99.90;;;;;;5005945;28;20178;-90
2022/01/04 08:39:26;;;;;;;1.57;1.10;;;11.00;99.90;;;;;;5001283;28;20224;-90
2022/01/04 08:41:55;;;;;;;2.10;1.43;;;11.20;99.90;;;;;;5008962;28;20208;-90
2022/01/04 08:44:24;;;;;;;3.93;2.30;;;11.30;99.90;;;;;;5011194;28;20179;-90
2022/01/04 08:46:52;;;;;;;1.70;1.40;;;11.30;99.90;;;;;;4995516;28;20183;-90
2022/01/04 08:49:18;;;;;;;1.30;1.20;;;11.40;99.90;;;;;;5012191;28;20188;-90
2022/01/04 08:51:44;;;;;;;3.27;2.10;;;11.50;99.90;;;;;;5013221;28;20291;-90
2022/01/04 08:54:10;;;;;;;1.83;1.30;;;11.60;99.90;;;;;;5017699;28;20204;-90
2022/01/04 08:56:41;;;;;;;1.83;1.30;;;11.60;99.90;;;;;;5014151;28;20218;-90
2022/01/04 08:59:10;;;;;;;1.40;1.00;;;11.60;99.90;;;;;;5015873;28;20213;-90
2022/01/04 09:02:02;;;;;;;1.47;1.00;;;11.60;99.90;;;;;;5002226;28;20206;-90
2022/01/04 09:04:28;;;;;;;2.07;1.40;;;11.70;99.90;;;;;;5013260;28;20505;-90
2022/01/04 09:06:54;;;;;;;2.03;1.20;;;11.70;99.90;;;;;;5015726;28;20181;-91
2022/01/04 09:09:20;;;;;;;1.73;1.23;;;11.70;99.90;;;;;;5016053;28;20188;-90
2022/01/04 09:11:46;;;;;;;1.93;1.30;;;11.70;99.90;;;;;;5015787;28;20221;-90
2022/01/04 09:14:23;;;;;;;2.53;1.40;;;11.70;99.90;;;;;;5015847;28;20217;-90
2022/01/04 09:19:35;;;;;;;1.30;1.20;;;11.80;99.90;;;;;;5032216;28;20179;-90
2022/01/04 09:22:01;;;;;;;2.57;1.33;;;11.70;99.90;;;;;;5015421;28;20194;-90
2022/01/04 09:24:27;;;;;;;1.90;1.10;;;11.70;99.90;;;;;;4995846;28;20197;-90
2022/01/04 09:26:52;;;;;;;1.40;1.30;;;11.70;99.90;;;;;;5029093;28;20539;-90
2022/01/04 09:29:19;;;;;;;1.63;1.00;;;11.70;99.90;;;;;;5031977;28;20174;-89
2022/01/04 09:31:48;;;;;;;1.60;1.17;;;11.60;99.90;;;;;;5013846;28;20217;-89
2022/01/04 09:34:14;;;;;;;1.83;1.30;;;11.60;99.90;;;;;;4997332;28;20201;-89
2022/01/04 09:36:41;;;;;;;2.87;1.57;;;11.60;99.90;;;;;;5015089;28;20248;-88
2022/01/04 09:39:17;;;;;;;2.53;1.67;;;11.60;99.90;;;;;;5015836;28;20181;-91
2022/01/04 09:41:43;;;;;;;2.50;1.50;;;11.60;99.90;;;;;;5015085;28;20574;-90
2022/01/04 09:44:10;;;;;;;2.27;1.60;;;11.50;99.90;;;;;;5014973;28;20181;-90
2022/01/04 09:46:37;;;;;;;3.50;1.67;;;11.50;99.90;;;;;;5005037;28;20182;-90
2022/01/04 09:49:03;;;;;;;7.33;3.40;;;11.50;99.90;;;;;;4993664;28;20242;-91
2022/01/04 09:51:31;;;;;;;3.03;1.90;;;11.50;99.90;;;;;;5020508;28;20210;-91
2022/01/04 09:53:57;;;;;;;3.90;2.53;;;11.50;99.90;;;;;;5020722;28;20210;-90
2022/01/04 09:56:23;;;;;;;3.27;2.40;;;11.60;99.90;;;;;;5009056;28;20178;-90
2022/01/04 09:59:01;;;;;;;3.13;2.10;;;11.60;99.90;;;;;;5010249;28;20196;-90
2022/01/04 10:01:33;;;;;;;3.13;1.93;;;11.60;99.90;;;;;;4988527;28;20234;-90
2022/01/04 10:04:01;;;;;;;3.07;1.70;;;11.70;99.90;;;;;;4989489;28;20187;-90
2022/01/04 10:06:27;;;;;;;3.93;1.83;;;11.70;99.90;;;;;;4990809;28;20179;-90
2022/01/04 10:09:11;;;;;;;2.53;1.70;;;11.70;99.90;;;;;;4994830;28;20198;-90
2022/01/04 10:11:58;;;;;;;2.77;1.30;;;11.70;99.90;;;;;;5001246;28;20214;-90
2022/01/04 10:14:38;;;;;;;1.83;1.60;;;11.80;99.90;;;;;;5009128;28;20180;-90
2022/01/04 10:17:07;;;;;;;2.10;1.50;;;11.80;99.90;;;;;;5014447;28;20181;-90
2022/01/04 10:19:36;;;;;;;3.77;1.80;;;11.80;99.90;;;;;;5010196;28;20179;-89
2022/01/04 10:22:32;;;;;;;3.67;2.27;;;11.90;99.90;;;;;;5005261;28;20214;-90
2022/01/04 10:25:02;;;;;;;2.57;1.57;;;11.90;99.90;;;;;;5001613;28;20269;-90
2022/01/04 10:27:30;;;;;;;3.77;1.50;;;11.80;99.90;;;;;;5012055;28;20229;-90
2022/01/04 10:30:39;;;;;;;3.57;1.80;;;11.90;99.90;;;;;;4998984;28;20225;-90
2022/01/04 10:33:13;;;;;;;2.17;1.50;;;11.90;99.90;;;;;;5010659;28;20689;-90
2022/01/04 10:35:52;;;;;;;4.53;2.10;;;12.00;99.90;;;;;;4996507;28;20182;-90
2022/01/04 10:38:40;;;;;;;1.63;1.53;;;12.10;99.90;;;;;;5014305;28;20182;-91
2022/01/04 10:41:21;;;;;;;3.07;1.93;;;12.10;99.90;;;;;;4995698;28;20184;-90
2022/01/04 10:43:47;;;;;;;4.47;2.10;;;12.20;99.90;;;;;;4995412;28;20186;-91
2022/01/04 10:46:30;;;;;;;2.33;1.80;;;12.20;99.90;;;;;;4998911;28;20179;-90
2022/01/04 10:49:00;;;;;;;1.67;1.50;;;12.30;99.90;;;;;;5023442;28;20188;-90
2022/01/04 10:51:28;;;;;;;3.00;1.70;;;12.30;99.90;;;;;;5005944;28;20203;-90
2022/01/04 10:54:00;;;;;;;3.10;2.00;;;12.30;99.90;;;;;;4998895;28;20257;-90
2022/01/04 10:56:33;;;;;;;3.27;1.57;;;12.30;99.90;;;;;;4985614;28;20188;-90
2022/01/04 10:59:11;;;;;;;2.37;1.53;;;12.30;99.90;;;;;;5028141;28;20210;-90
2022/01/04 11:01:54;;;;;;;3.53;1.90;;;12.20;99.90;;;;;;5005947;28;20810;-90
2022/01/04 11:04:22;;;;;;;2.77;1.63;;;12.10;99.90;;;;;;5011629;28;20205;-90
2022/01/04 11:07:05;;;;;;;2.53;1.67;;;12.20;99.90;;;;;;4998230;28;20210;-90
2022/01/04 11:09:34;;;;;;;3.00;1.50;;;12.20;99.90;;;;;;5000502;28;20190;-90
2022/01/04 11:12:03;;;;;;;3.33;1.67;;;12.20;99.90;;;;;;4998127;28;20202;-90
2022/01/04 11:14:30;;;;;;;3.47;1.60;;;12.30;99.90;;;;;;4998273;28;20277;-90
2022/01/04 11:16:59;;;;;;;4.10;1.83;;;12.30;99.90;;;;;;5034470;28;20217;-90
2022/01/04 11:19:27;;;;;;;4.50;1.60;;;12.30;99.90;;;;;;4996864;28;20206;-90
2022/01/04 11:21:59;;;;;;;3.50;1.60;;;12.30;99.90;;;;;;5004784;28;20200;-89
2022/01/04 11:24:26;;;;;;;4.60;1.53;;;12.30;99.90;;;;;;4998007;28;20210;-90
2022/01/04 11:26:53;;;;;;;1.93;1.47;;;12.30;99.90;;;;;;5006121;28;20214;-90
2022/01/04 11:29:29;;;;;;;3.50;1.47;;;12.40;99.90;;;;;;5001745;28;20235;-89
2022/01/04 11:32:08;;;;;;;3.37;1.53;;;12.40;99.90;;;;;;5019754;28;20725;-90
2022/01/04 11:35:12;;;;;;;3.73;1.20;;;12.30;99.90;;;;;;5012628;28;20180;-90
2022/01/04 11:37:41;;;;;;;1.73;1.40;;;12.30;99.90;;;;;;5003142;28;20232;-90
2022/01/04 11:40:35;;;;;;;3.13;1.80;;;12.30;99.90;;;;;;5006641;28;20182;-90
2022/01/04 11:43:04;;;;;;;4.43;2.07;;;12.30;99.90;;;;;;5010758;28;20272;-90
2022/01/04 11:45:48;;;;;;;2.20;1.50;;;12.30;99.90;;;;;;4994264;28;20242;-91
2022/01/04 11:48:25;;;;;;;3.77;1.90;;;12.20;99.90;;;;;;4992102;28;20188;-90
2022/01/04 11:51:00;;;;;;;3.20;1.77;;;12.10;99.90;;;;;;5012501;28;20202;-91
2022/01/04 11:53:26;;;;;;;3.80;1.67;;;12.10;99.90;;;;;;4997161;28;20787;-90
2022/01/04 11:56:00;;;;;;;1.93;1.33;;;12.10;99.90;;;;;;5014104;28;20264;-90
2022/01/04 11:58:43;;;;;;;1.60;1.47;;;12.10;99.90;;;;;;5017241;28;20162;-90
2022/01/04 12:01:08;;;;;;;3.00;1.60;;;12.20;99.90;;;;;;5017188;28;20197;-90
2022/01/04 12:03:44;;;;;;;3.90;2.10;;;12.20;99.90;;;;;;5017498;28;20187;-91
2022/01/04 12:06:12;;;;;;;4.07;2.07;;;12.20;99.90;;;;;;5017727;28;20193;-90
2022/01/04 12:08:49;;;;;;;3.50;1.80;;;12.20;99.90;;;;;;5016636;28;20190;-90
2022/01/04 12:11:25;;;;;;;2.13;1.60;;;12.20;99.90;;;;;;5017225;28;20244;-90
2022/01/04 12:13:52;;;;;;;4.83;1.90;;;12.10;99.90;;;;;;5015194;28;20189;-90
2022/01/04 12:16:44;;;;;;;4.37;1.77;;;12.10;99.90;;;;;;5017045;28;20273;-90
2022/01/04 12:19:15;;;;;;;4.03;1.70;;;12.10;99.90;;;;;;5013659;28;20197;-90
2022/01/04 12:21:47;;;;;;;3.00;1.80;;;12.10;99.90;;;;;;4997227;28;20225;-90
2022/01/04 12:24:18;;;;;;;3.07;1.70;;;12.10;99.90;;;;;;4977407;28;20310;-90
2022/01/04 12:26:44;;;;;;;3.70;2.00;;;12.10;99.90;;;;;;4984014;28;20240;-90
2022/01/04 12:29:10;;;;;;;3.10;2.20;;;12.00;99.90;;;;;;5008573;28;20214;-90
2022/01/04 12:31:47;;;;;;;3.67;2.30;;;12.00;99.90;;;;;;5020497;28;20229;-91
2022/01/04 12:34:31;;;;;;;2.13;1.60;;;12.00;99.90;;;;;;4997868;28;20210;-90
2022/01/04 12:37:18;;;;;;;2.93;1.80;;;12.00;99.90;;;;;;5001668;28;20181;-90
2022/01/04 12:39:44;;;;;;;2.73;1.90;;;12.00;99.90;;;;;;4997536;28;20191;-90
2022/01/04 12:42:12;;;;;;;3.67;2.10;;;12.00;99.90;;;;;;5002043;28;20198;-90
2022/01/04 12:44:40;;;;;;;3.20;2.10;;;12.10;99.90;;;;;;5016892;28;20187;-90
2022/01/04 12:47:08;;;;;;;3.40;1.93;;;12.00;99.90;;;;;;5016340;28;20174;-90
2022/01/04 12:49:35;;;;;;;2.60;1.50;;;12.00;99.90;;;;;;5012432;28;20187;-89
2022/01/04 12:52:08;;;;;;;3.00;1.97;;;12.10;99.90;;;;;;4989461;28;20253;-90
2022/01/04 12:54:41;;;;;;;3.67;1.97;;;12.10;99.90;;;;;;4988921;28;20180;-91
2022/01/04 12:57:11;;;;;;;2.60;1.60;;;12.10;99.90;;;;;;5004474;28;20194;-90
2022/01/04 12:59:43;;;;;;;3.67;1.50;;;12.10;99.90;;;;;;5012579;28;20183;-91
2022/01/04 13:02:20;;;;;;;3.00;1.60;;;12.20;99.90;;;;;;4995920;28;20293;-91
2022/01/04 13:04:49;;;;;;;3.03;1.60;;;12.10;99.90;;;;;;4996685;28;20180;-90
2022/01/04 13:07:20;;;;;;;2.43;1.70;;;12.00;99.90;;;;;;4995072;28;20179;-90
2022/01/04 13:09:58;;;;;;;2.67;1.73;;;12.00;99.90;;;;;;5004371;28;20237;-90